Nearby METAR Reports

 

KMTN - Baltimore/Martin, Maryland, USA
Distance from station: SSE 8mi, 13km
Updated: Tue, 27-Jan-2015 6:55pm EST
NOT Current
Few Clouds
Few Clouds
 Wind from WNW
Wind: WNW 17 mph , 28 km/h, Gust: 28 mph , 44 km/h
Temperature: 32°F , 0°C
Wind Chill: 21°F , -6°C
Dew Point: 21°F , -6°C
Humidity: 64%
Barometer: 29.86 inHg , 1011.2 hPa
Clouds: Few Clouds
Visibility: 10 miles , 16 km
Cloud details: Few Clouds 20000 ft
2015/01/27 23:55 KMTN 272355Z 29015G24KT 10SM FEW200 00/M06 A2986
KDMH - Baltimore/Dwntwn, Maryland, USA
Distance from station: SW 12mi, 19km
Updated: Tue, 27-Jan-2015 7:54pm EST

 
Temperature: 30°F , -1°C
Dew Point: 18°F , -8°C
Humidity: 59%
Barometer: 29.85 inHg , 1010.8 hPa
2015/01/28 00:54 KDMH 280054Z AUTO M01/M08 A2985 RMK AO1 SLP109 T10111083
 
KBWI - Balto/Wash Intl, Maryland, USA
Distance from station: SSW 20mi, 33km
Updated: Tue, 27-Jan-2015 7:54pm EST
Partly cloudy
Partly cloudy
 Wind from WNW
Wind: WNW 15 mph , 24 km/h, Gust: 22 mph , 35 km/h
Temperature: 28°F , -2°C
Wind Chill: 16°F , -9°C
Dew Point: 18°F , -8°C
Humidity: 64%
Barometer: 29.86 inHg , 1011.2 hPa
Clouds: Partly cloudy
Visibility: 10 miles , 16 km
Cloud details: Few Clouds 16000 ft
Partly cloudy 25000 ft
2015/01/28 00:54 KBWI 280054Z 29013G19KT 10SM FEW160 SCT250 M02/M08 A2986 RMK AO2 SLP113 T10171078
KDMW - Carroll Cnty, Maryland, USA
Distance from station: WNW 30mi, 48km
Updated: Tue, 27-Jan-2015 8:00pm EST
Partly cloudy
Partly cloudy
 Wind from WNW
Wind: WNW 8 mph , 13 km/h
Temperature: 25°F , -4°C
Wind Chill: 16°F , -9°C
Dew Point: 18°F , -8°C
Humidity: 74%
Barometer: 29.85 inHg , 1010.8 hPa
Clouds: Partly cloudy
Visibility: 10 miles , 16 km
Cloud details: Partly cloudy 9000 ft
2015/01/28 01:00 KDMW 280100Z AUTO 30007KT 10SM SCT090 M04/M08 A2985 RMK AO2
 
KNAK - Annapolis/Naval, Maryland, USA
Distance from station: S 30mi, 48km
Updated: Tue, 27-Jan-2015 7:54pm EST
Clear
Clear
 Wind from NW
Wind: NW 14 mph , 22 km/h
Temperature: 32°F , 0°C
Wind Chill: 22°F , -6°C
Dew Point: 21°F , -6°C
Humidity: 64%
Barometer: 29.86 inHg , 1011.2 hPa
Clouds: Clear
Visibility: 10 miles , 16 km
2015/01/28 00:54 KNAK 280054Z AUTO 31012KT 10SM CLR 00/M06 A2986 RMK AO2 SLP114 T00001061
KW29 - Stevensville, Maryland, USA
Distance from station: SSE 31mi, 50km
Updated: Tue, 27-Jan-2015 8:02pm EST

 Wind from NW
Wind: NW 15 mph , 24 km/h, Gust: 23 mph , 37 km/h
Temperature: 32°F , 0°C
Wind Chill: 22°F , -6°C
Dew Point: 21°F , -6°C
Humidity: 64%
Barometer: 29.87 inHg , 1011.5 hPa
Visibility: 10 miles , 16 km
2015/01/28 01:02 KW29 280102Z AUTO 31013G20KT 10SM 00/M06 A2987 RMK AO1
 
KCGS - College Park, Maryland, USA
Distance from station: SW 38mi, 61km
Updated: Tue, 27-Jan-2015 8:00pm EST
Clear
Clear
 Wind from NW
Wind: NW 9 mph , 15 km/h, Gust: 21 mph , 33 km/h
Temperature: 32°F , 0°C
Wind Chill: 24°F , -4°C
Dew Point: 21°F , -6°C
Humidity: 64%
Barometer: 29.89 inHg , 1012.2 hPa
Clouds: Clear
Visibility: 10 miles , 16 km
2015/01/28 01:00 KCGS 280100Z AUTO 31008G18KT 280V360 10SM CLR 00/M06 A2989 RMK AO1
KGAI - Gaithersburg, Maryland, USA
Distance from station: WSW 40mi, 65km
Updated: Tue, 27-Jan-2015 8:15pm EST
Clear
Clear
 Wind from WNW
Wind: WNW 17 mph , 28 km/h, Gust: 23 mph , 37 km/h
Temperature: 27°F , -3°C
Wind Chill: 14°F , -10°C
Dew Point: 16°F , -9°C
Humidity: 64%
Barometer: 29.92 inHg , 1013.2 hPa
Clouds: Clear
Visibility: 10 miles , 16 km
2015/01/28 01:15 KGAI 280115Z 30015G20KT 10SM CLR M03/M09 A2992 RMK AO1
 
KTHV - York, Pennsylvania, USA
Distance from station: NNW 40mi, 65km
Updated: Tue, 27-Jan-2015 7:53pm EST
Clear
Clear
 Wind from WNW
Wind: WNW 8 mph , 13 km/h
Temperature: 25°F , -4°C
Wind Chill: 16°F , -9°C
Dew Point: 14°F , -10°C
Humidity: 63%
Barometer: 29.86 inHg , 1011.2 hPa
Clouds: Clear
Visibility: 10 miles , 16 km
2015/01/28 00:53 KTHV 280053Z AUTO 29007KT 10SM CLR M04/M10 A2986 RMK AO2 SLP120 T10391100
KFDK - Frederick, Maryland, USA
Distance from station: W 47mi, 75km
Updated: Tue, 27-Jan-2015 8:00pm EST
Clear
Clear
 Wind from NW
Wind: NW 9 mph , 15 km/h
Temperature: 30°F , -1°C
Wind Chill: 22°F , -6°C
Dew Point: 14°F , -10°C
Humidity: 51%
Barometer: 29.93 inHg , 1013.5 hPa
Clouds: Clear
Visibility: 10 miles , 16 km
2015/01/28 01:00 KFDK 280100Z AUTO 32008KT 10SM CLR M01/M10 A2993 RMK AO2
 
KESN - Easton/Newnam, Maryland, USA
Distance from station: SSE 48mi, 78km
Updated: Tue, 27-Jan-2015 7:45pm EST
Clear
Clear
 Wind from NW
Wind: NW 16 mph , 26 km/h, Gust: 25 mph , 41 km/h
Temperature: 32°F , 0°C
Wind Chill: 21°F , -6°C
Dew Point: 25°F , -4°C
Humidity: 75%
Barometer: 29.88 inHg , 1011.9 hPa
Clouds: Clear
Visibility: 10 miles , 16 km
2015/01/28 00:45 KESN 280045Z 32014G22KT 10SM SKC 00/M04 A2988
KDCA - Washington/Natl, Washington D.c., USA
Distance from station: SW 49mi, 79km
Updated: Tue, 27-Jan-2015 7:52pm EST
Few Clouds
Few Clouds
 Wind from NW
Wind: NW 17 mph , 28 km/h, Gust: 25 mph , 41 km/h
Temperature: 34°F , 1°C
Wind Chill: 23°F , -5°C
Dew Point: 18°F , -8°C
Humidity: 51%
Barometer: 29.90 inHg , 1012.5 hPa
Clouds: Few Clouds
Visibility: 10 miles , 16 km
Cloud details: Few Clouds 9000 ft
2015/01/28 00:52 KDCA 280052Z 32015G22KT 10SM FEW090 01/M08 A2990 RMK AO2 SLP124 T00061078
 
KLNS - Lancaster, Pennsylvania, USA
Distance from station: N 49mi, 79km
Updated: Tue, 27-Jan-2015 7:53pm EST
Clear
Clear
 Wind from NNW
Wind: NNW 17 mph , 28 km/h, Gust: 25 mph , 41 km/h
Temperature: 27°F , -3°C
Wind Chill: 14°F , -10°C
Dew Point: 1°F , -17°C
Humidity: 33%
Barometer: 29.84 inHg , 1010.5 hPa
Clouds: Clear
Visibility: 10 miles , 16 km
2015/01/28 00:53 KLNS 280053Z 33015G22KT 10SM CLR M03/M17 A2984 RMK AO2 SLP108 T10331167
KILG - Wilmington, Delaware, USA
Distance from station: ENE 50mi, 81km
Updated: Tue, 27-Jan-2015 7:51pm EST
Clear
Clear
 Wind from NW
Wind: NW 16 mph , 26 km/h, Gust: 30 mph , 48 km/h
Temperature: 30°F , -1°C
Wind Chill: 19°F , -7°C
Dew Point: 7°F , -14°C
Humidity: 37%
Barometer: 29.82 inHg , 1009.8 hPa
Clouds: Clear
Visibility: 10 miles , 16 km
2015/01/28 00:51 KILG 280051Z 32014G26KT 10SM CLR M01/M14 A2982 RMK AO2 PK WND 33026/0042 SLP100 T10111139